Time;durP1;ratioP1;P1;durP2;ratioP2;P2;SDS_P1;SDS_P2;PMS_P1;PMS_P2;Temp;Humidity;BMP_temperature;BMP_pressure;BME280_temperature;BME280_humidity;BME280_pressure;Samples;Min_cycle;Max_cycle;Signal;HPM_P1;HPM_P2
2023/10/01 00:00:36;;;;;;;9.53;4.67;;;;;;;9.63;100.00;101520.47;4989880;28;20221;-70
2023/10/01 00:03:06;;;;;;;11.57;5.60;;;;;;;9.48;100.00;101524.28;4990862;28;20205;-70
2023/10/01 00:05:32;;;;;;;11.10;5.80;;;;;;;9.37;100.00;101523.91;4989915;28;20601;-71
2023/10/01 00:08:01;;;;;;;15.93;5.33;;;;;;;9.28;100.00;101526.22;4993127;28;20622;-71
2023/10/01 00:10:27;;;;;;;8.73;5.00;;;;;;;9.18;100.00;101514.38;4984776;28;20678;-71
2023/10/01 00:12:54;;;;;;;9.27;4.70;;;;;;;9.12;100.00;101516.81;4990476;28;20290;-71
2023/10/01 00:15:24;;;;;;;10.70;4.93;;;;;;;9.25;100.00;101523.47;4993523;28;20794;-71
2023/10/01 00:17:50;;;;;;;14.57;5.87;;;;;;;9.30;100.00;101533.38;4989424;28;20744;-71
2023/10/01 00:20:22;;;;;;;10.60;5.57;;;;;;;9.29;100.00;101531.56;4990868;28;20645;-71
2023/10/01 00:22:51;;;;;;;11.90;4.80;;;;;;;9.16;100.00;101526.66;4990420;28;20205;-71
2023/10/01 00:25:19;;;;;;;7.13;4.33;;;;;;;9.05;100.00;101528.00;4991528;28;20714;-71
2023/10/01 00:27:45;;;;;;;8.90;4.70;;;;;;;8.99;100.00;101525.13;4987288;28;20317;-71
2023/10/01 00:30:12;;;;;;;10.77;5.37;;;;;;;8.91;100.00;101529.22;4995295;28;20658;-71
2023/10/01 00:32:39;;;;;;;9.17;4.87;;;;;;;8.87;100.00;101527.31;4990424;28;20290;-70
2023/10/01 00:35:07;;;;;;;7.53;4.23;;;;;;;8.86;100.00;101528.16;4990318;28;20277;-71
2023/10/01 00:37:34;;;;;;;9.20;4.70;;;;;;;8.90;100.00;101527.44;4989448;28;20228;-71
2023/10/01 00:40:05;;;;;;;9.00;4.77;;;;;;;8.99;100.00;101519.84;4972238;28;20211;-71
2023/10/01 00:42:35;;;;;;;10.10;5.33;;;;;;;9.01;100.00;101515.50;4984198;28;20266;-71
2023/10/01 00:45:03;;;;;;;13.87;5.20;;;;;;;8.93;100.00;101514.34;4987480;28;20316;-71
2023/10/01 00:47:31;;;;;;;9.67;4.97;;;;;;;8.86;100.00;101507.91;4971518;28;20226;-71
2023/10/01 00:49:59;;;;;;;10.93;5.10;;;;;;;8.87;100.00;101508.81;4988355;28;20208;-71
2023/10/01 00:52:27;;;;;;;10.30;4.90;;;;;;;8.85;100.00;101510.50;4992299;28;20301;-71
2023/10/01 00:54:55;;;;;;;8.00;4.07;;;;;;;8.78;100.00;101504.97;4991614;28;20660;-71
2023/10/01 00:57:21;;;;;;;8.93;4.50;;;;;;;8.84;100.00;101500.78;4986057;28;20209;-71
2023/10/01 00:59:48;;;;;;;9.07;4.77;;;;;;;8.93;100.00;101509.06;4988024;28;20202;-70
2023/10/01 01:02:18;;;;;;;10.03;5.10;;;;;;;9.02;100.00;101505.00;4989665;28;20205;-70
2023/10/01 01:05:05;;;;;;;10.90;4.63;;;;;;;9.17;100.00;101501.13;4995415;28;20230;-70
2023/10/01 01:07:32;;;;;;;11.43;5.23;;;;;;;9.18;100.00;101508.19;4987143;28;20290;-70
2023/10/01 01:10:02;;;;;;;10.33;5.23;;;;;;;9.00;100.00;101492.56;4988916;28;20364;-71
2023/10/01 01:12:29;;;;;;;13.03;5.83;;;;;;;8.90;100.00;101501.91;4984682;28;20207;-71
2023/10/01 01:14:58;;;;;;;9.63;5.40;;;;;;;8.77;100.00;101492.59;4983142;28;20308;-71
2023/10/01 01:17:27;;;;;;;13.70;5.33;;;;;;;8.71;100.00;101486.19;4976747;28;20207;-71
2023/10/01 01:19:55;;;;;;;11.97;6.07;;;;;;;8.66;100.00;101490.38;4990863;28;20314;-71
2023/10/01 01:22:28;;;;;;;11.67;5.70;;;;;;;8.60;100.00;101483.13;4984673;28;20207;-71
2023/10/01 01:25:00;;;;;;;10.57;5.60;;;;;;;8.51;100.00;101473.97;4980001;28;20222;-71
2023/10/01 01:27:31;;;;;;;8.43;4.97;;;;;;;8.42;100.00;101464.84;4992253;28;20304;-71
2023/10/01 01:29:58;;;;;;;11.93;5.70;;;;;;;8.42;100.00;101467.50;4987832;28;20671;-71
2023/10/01 01:32:25;;;;;;;11.13;5.33;;;;;;;8.37;100.00;101468.13;4989748;28;20290;-71
2023/10/01 01:34:52;;;;;;;12.13;5.13;;;;;;;8.33;100.00;101456.53;4986462;28;20252;-70
2023/10/01 01:37:36;;;;;;;9.50;5.43;;;;;;;8.36;100.00;101461.94;4988880;28;20210;-71
2023/10/01 01:40:20;;;;;;;8.63;4.90;;;;;;;8.47;100.00;101454.47;4971478;28;20256;-71
2023/10/01 01:42:47;;;;;;;11.93;5.43;;;;;;;8.60;100.00;101458.47;4982886;28;20399;-70
2023/10/01 01:45:19;;;;;;;10.07;4.80;;;;;;;8.81;100.00;101461.03;4988352;28;20235;-70
2023/10/01 01:47:46;;;;;;;12.77;6.00;;;;;;;8.90;100.00;101467.56;4971251;28;20201;-70
2023/10/01 01:50:26;;;;;;;12.87;6.00;;;;;;;8.86;100.00;101464.75;4992626;28;20569;-70
2023/10/01 01:53:03;;;;;;;10.37;5.57;;;;;;;8.74;100.00;101467.81;4984539;28;20284;-70
2023/10/01 01:55:34;;;;;;;15.50;5.43;;;;;;;8.66;100.00;101466.63;4985341;28;20233;-71
2023/10/01 01:58:08;;;;;;;8.53;4.67;;;;;;;8.68;100.00;101464.94;4987234;28;20552;-71
2023/10/01 02:01:01;;;;;;;11.57;5.23;;;;;;;8.64;100.00;101465.66;4988225;28;20703;-71
2023/10/01 02:03:28;;;;;;;11.60;5.23;;;;;;;8.54;100.00;101459.16;4985794;28;20700;-71
2023/10/01 02:05:54;;;;;;;11.90;4.93;;;;;;;8.48;100.00;101459.81;4988112;28;20235;-71
2023/10/01 02:08:34;;;;;;;10.57;4.80;;;;;;;8.50;100.00;101464.25;4988440;28;20687;-71
2023/10/01 02:11:08;;;;;;;11.80;4.83;;;;;;;8.63;100.00;101470.03;4973174;28;20199;-71
2023/10/01 02:13:41;;;;;;;12.07;4.90;;;;;;;8.69;100.00;101477.31;4982481;28;21304;-70
2023/10/01 02:19:11;;;;;;;9.00;4.80;;;;;;;8.61;100.00;101477.00;4987660;28;20208;-70
2023/10/01 02:21:48;;;;;;;11.00;5.27;;;;;;;8.53;100.00;101467.00;4985904;28;20245;-71
2023/10/01 02:24:22;;;;;;;8.73;4.43;;;;;;;8.48;100.00;101467.72;4987518;28;23769;-70
2023/10/01 02:26:59;;;;;;;8.77;4.00;;;;;;;8.44;100.00;101454.34;4971709;28;20334;-70
2023/10/01 02:29:31;;;;;;;8.30;4.10;;;;;;;8.33;100.00;101435.44;4987244;28;20378;-71
2023/10/01 02:31:58;;;;;;;9.67;4.40;;;;;;;8.32;100.00;101438.88;4987460;28;20466;-71
2023/10/01 02:34:26;;;;;;;8.73;4.77;;;;;;;8.38;100.00;101435.59;4992750;28;20208;-71
2023/10/01 02:36:52;;;;;;;14.07;5.40;;;;;;;8.37;100.00;101442.63;4987427;28;20267;-71
2023/10/01 02:39:27;;;;;;;10.20;5.13;;;;;;;8.40;100.00;101437.47;4985878;28;20726;-71
2023/10/01 02:44:35;;;;;;;8.40;4.80;;;;;;;8.76;100.00;101431.78;4992141;28;20555;-70
2023/10/01 02:47:09;;;;;;;7.80;4.47;;;;;;;8.84;100.00;101437.38;4988458;28;20204;-70
2023/10/01 02:49:49;;;;;;;10.27;4.50;;;;;;;8.74;100.00;101439.66;4986045;28;20201;-71
2023/10/01 02:52:17;;;;;;;9.13;4.23;;;;;;;8.61;100.00;101444.44;4988234;28;20210;-70
2023/10/01 02:54:44;;;;;;;11.57;5.10;;;;;;;8.52;100.00;101437.06;4987119;28;20307;-71
2023/10/01 02:57:13;;;;;;;9.90;5.07;;;;;;;8.53;100.00;101441.50;4996277;28;20216;-70
2023/10/01 03:00:11;;;;;;;10.10;5.03;;;;;;;8.57;100.00;101438.13;4988115;28;20206;-71
2023/10/01 03:02:33;;;;;;;8.47;4.13;;;;;;;8.59;100.00;101432.91;4987926;28;20629;-71
2023/10/01 03:05:05;;;;;;;10.03;4.53;;;;;;;8.57;100.00;101429.31;4984120;28;21888;-71
2023/10/01 03:07:38;;;;;;;11.03;5.27;;;;;;;8.62;100.00;101438.31;4987924;28;20202;-71
2023/10/01 03:10:15;;;;;;;11.50;4.80;;;;;;;8.65;100.00;101434.03;4982392;28;20210;-70
2023/10/01 03:12:42;;;;;;;11.00;4.97;;;;;;;8.96;100.00;101443.13;4983261;28;20206;-71
2023/10/01 03:17:57;;;;;;;17.93;5.97;;;;;;;9.25;100.00;101446.81;4987057;28;20206;-71
2023/10/01 03:23:25;;;;;;;11.67;6.03;;;;;;;9.16;100.00;101441.19;4993184;28;20265;-71
2023/10/01 03:25:59;;;;;;;11.83;5.40;;;;;;;9.11;100.00;101441.91;4983938;28;20226;-71
2023/10/01 03:28:31;;;;;;;10.77;5.60;;;;;;;9.07;100.00;101449.69;4982782;28;20277;-70
2023/10/01 03:31:09;;;;;;;12.20;5.30;;;;;;;9.02;100.00;101449.50;4984945;28;20391;-70
2023/10/01 03:33:40;;;;;;;13.77;6.30;;;;;;;8.88;100.00;101442.84;4965600;28;20284;-71
2023/10/01 03:36:10;;;;;;;10.00;5.17;;;;;;;8.90;100.00;101445.53;4985071;28;20227;-71
2023/10/01 03:38:44;;;;;;;12.17;5.80;;;;;;;8.94;100.00;101443.06;4981797;28;20209;-71
2023/10/01 03:41:23;;;;;;;14.43;6.17;;;;;;;8.95;100.00;101450.13;4987470;28;20230;-70
2023/10/01 03:43:54;;;;;;;14.67;5.93;;;;;;;8.97;100.00;101443.16;4987763;28;20591;-70
2023/10/01 03:46:26;;;;;;;13.87;6.20;;;;;;;8.96;100.00;101445.75;4982275;28;20588;-70
2023/10/01 03:51:58;;;;;;;14.10;6.23;;;;;;;8.91;100.00;101435.03;4996967;28;20222;-70
2023/10/01 03:54:52;;;;;;;11.50;5.73;;;;;;;8.83;100.00;101436.50;4988526;28;20203;-70
2023/10/01 03:57:19;;;;;;;14.57;5.30;;;;;;;8.83;100.00;101431.19;4990301;28;20576;-71
2023/10/01 03:59:53;;;;;;;15.03;6.77;;;;;;;8.86;100.00;101427.78;4987490;28;20208;-70
2023/10/01 04:02:28;;;;;;;14.97;6.13;;;;;;;8.74;100.00;101433.47;4990885;28;20228;-71
2023/10/01 04:04:58;;;;;;;12.77;6.73;;;;;;;8.81;100.00;101432.91;4984504;28;20232;-71
2023/10/01 04:07:26;;;;;;;10.33;5.57;;;;;;;8.74;100.00;101431.75;4971859;28;20202;-71
2023/10/01 04:09:53;;;;;;;14.87;5.73;;;;;;;8.78;100.00;101435.38;4989782;28;20238;-71
2023/10/01 04:12:27;;;;;;;13.03;5.70;;;;;;;8.83;100.00;101428.56;4988501;28;20278;-71
2023/10/01 04:14:54;;;;;;;11.07;5.43;;;;;;;8.84;100.00;101425.06;4990861;28;20235;-71
2023/10/01 04:17:25;;;;;;;12.17;5.77;;;;;;;8.87;100.00;101426.94;4996932;28;20576;-70
2023/10/01 04:20:00;;;;;;;13.77;5.97;;;;;;;8.90;100.00;101435.88;4992784;28;20197;-71
2023/10/01 04:22:29;;;;;;;14.37;5.63;;;;;;;8.85;100.00;101431.25;4986169;28;20223;-70
2023/10/01 04:25:10;;;;;;;11.30;5.13;;;;;;;8.75;100.00;101433.53;4989512;28;20259;-71
2023/10/01 04:27:41;;;;;;;10.53;5.27;;;;;;;8.63;100.00;101434.81;4991135;28;20234;-71
2023/10/01 04:30:12;;;;;;;8.37;5.17;;;;;;;8.52;100.00;101439.69;4986212;28;20298;-71
2023/10/01 04:32:39;;;;;;;10.90;5.43;;;;;;;8.42;100.00;101429.63;4987784;28;20226;-70
2023/10/01 04:35:14;;;;;;;15.53;5.10;;;;;;;8.39;100.00;101429.50;4990190;28;20381;-71
2023/10/01 04:37:48;;;;;;;10.33;5.60;;;;;;;8.37;100.00;101431.16;4986519;28;20219;-70
2023/10/01 04:40:32;;;;;;;12.17;5.13;;;;;;;8.37;100.00;101436.44;4989669;28;20239;-70
2023/10/01 04:43:08;;;;;;;13.40;5.80;;;;;;;8.42;100.00;101438.47;4992878;28;20231;-70
2023/10/01 04:45:40;;;;;;;13.80;5.47;;;;;;;8.46;100.00;101439.47;4991292;28;20251;-71
2023/10/01 04:48:16;;;;;;;9.73;5.33;;;;;;;8.39;100.00;101440.94;4986719;28;20592;-71
2023/10/01 04:50:45;;;;;;;11.73;5.40;;;;;;;8.32;100.00;101435.34;4988077;28;20678;-71
2023/10/01 04:53:15;;;;;;;11.07;5.90;;;;;;;8.38;100.00;101441.78;4988164;28;20201;-71
2023/10/01 04:55:42;;;;;;;10.00;5.00;;;;;;;8.37;100.00;101458.47;4986503;28;20224;-71
2023/10/01 04:58:12;;;;;;;12.63;5.60;;;;;;;8.34;100.00;101445.16;4999840;28;20278;-71
2023/10/01 05:00:41;;;;;;;15.17;5.60;;;;;;;8.35;100.00;101448.69;4971686;28;20202;-71
2023/10/01 05:03:10;;;;;;;12.53;5.90;;;;;;;8.40;100.00;101458.59;4989423;28;20231;-71
2023/10/01 05:05:37;;;;;;;13.27;6.20;;;;;;;8.42;100.00;101467.50;4986248;28;20222;-70
2023/10/01 05:08:04;;;;;;;14.60;6.77;;;;;;;8.46;100.00;101468.50;4988331;28;20209;-70
2023/10/01 05:10:50;;;;;;;16.33;7.40;;;;;;;8.40;100.00;101469.13;4997848;28;20234;-71
2023/10/01 05:13:22;;;;;;;17.23;7.10;;;;;;;8.24;100.00;101469.34;4989621;28;20504;-70
2023/10/01 05:15:57;;;;;;;15.30;7.17;;;;;;;8.16;100.00;101473.44;4988090;28;20240;-71
2023/10/01 05:18:28;;;;;;;14.90;7.17;;;;;;;8.09;100.00;101474.91;4987427;28;20260;-71
2023/10/01 05:21:04;;;;;;;13.37;6.77;;;;;;;8.03;100.00;101468.50;4989232;28;20305;-70
2023/10/01 05:23:30;;;;;;;20.07;8.47;;;;;;;8.17;100.00;101470.84;4972632;28;20217;-71
2023/10/01 05:25:57;;;;;;;20.00;8.70;;;;;;;8.36;100.00;101474.25;4995467;28;20236;-70
2023/10/01 05:28:31;;;;;;;18.50;7.60;;;;;;;8.38;100.00;101468.19;4989217;28;20212;-71
2023/10/01 05:31:00;;;;;;;16.37;7.83;;;;;;;8.26;100.00;101478.22;4975262;28;20723;-71
2023/10/01 05:33:32;;;;;;;17.70;8.83;;;;;;;8.30;100.00;101474.88;4990136;28;20229;-71
2023/10/01 05:36:04;;;;;;;20.40;9.40;;;;;;;8.42;100.00;101466.59;5003075;28;20235;-71
2023/10/01 05:38:34;;;;;;;21.10;8.53;;;;;;;8.54;100.00;101479.38;4994940;28;20206;-71
2023/10/01 05:41:03;;;;;;;19.97;9.20;;;;;;;8.55;100.00;101482.06;4988849;28;20234;-71
2023/10/01 05:43:43;;;;;;;18.03;9.03;;;;;;;8.51;100.00;101485.44;4990881;28;20216;-71
2023/10/01 05:46:10;;;;;;;16.50;7.90;;;;;;;8.44;100.00;101481.66;4990318;28;20221;-70
2023/10/01 05:48:40;;;;;;;16.53;7.90;;;;;;;8.39;100.00;101490.19;4990032;28;20262;-72
2023/10/01 05:51:12;;;;;;;19.50;8.23;;;;;;;8.39;100.00;101500.75;4993929;28;20595;-71
2023/10/01 05:53:38;;;;;;;17.10;8.77;;;;;;;8.35;100.00;101488.28;4990939;28;20202;-70
2023/10/01 05:56:15;;;;;;;14.23;7.07;;;;;;;8.33;100.00;101492.56;4990212;28;20230;-71
2023/10/01 05:58:44;;;;;;;16.80;7.13;;;;;;;8.34;100.00;101505.84;4990876;28;20210;-71
2023/10/01 06:01:14;;;;;;;15.97;7.80;;;;;;;8.33;100.00;101501.41;4996445;28;20205;-71
2023/10/01 06:03:43;;;;;;;16.07;7.43;;;;;;;8.39;100.00;101511.31;4994294;28;20251;-71
2023/10/01 06:06:24;;;;;;;17.27;7.53;;;;;;;8.41;100.00;101505.28;4989590;28;20230;-70
2023/10/01 06:09:00;;;;;;;12.60;6.27;;;;;;;8.46;100.00;101503.72;4990440;28;20578;-70
2023/10/01 06:11:38;;;;;;;11.63;6.50;;;;;;;8.48;100.00;101498.50;4988679;28;20201;-70
2023/10/01 06:14:06;;;;;;;19.07;6.60;;;;;;;8.53;100.00;101499.59;4992062;28;20599;-70
2023/10/01 06:16:37;;;;;;;16.50;7.30;;;;;;;8.61;100.00;101499.88;5003696;28;20255;-71
2023/10/01 06:19:11;;;;;;;15.50;6.73;;;;;;;8.65;100.00;101500.06;4999833;28;20217;-70
2023/10/01 06:21:39;;;;;;;17.10;7.10;;;;;;;8.81;100.00;101500.66;4992090;28;20220;-70
2023/10/01 06:24:10;;;;;;;15.27;7.30;;;;;;;8.93;100.00;101503.75;4988878;28;20203;-70
2023/10/01 06:26:36;;;;;;;14.73;7.43;;;;;;;8.98;100.00;101502.19;4991118;28;20230;-70
2023/10/01 06:29:05;;;;;;;16.63;7.27;;;;;;;9.04;100.00;101511.25;4989942;28;20256;-71
2023/10/01 06:31:48;;;;;;;15.20;7.17;;;;;;;9.07;100.00;101518.38;4993313;28;20207;-71
2023/10/01 06:34:21;;;;;;;19.47;7.60;;;;;;;9.16;100.00;101508.16;4990800;28;20216;-70
2023/10/01 06:36:51;;;;;;;17.97;7.67;;;;;;;9.29;100.00;101513.06;4989695;28;20315;-70
2023/10/01 06:39:20;;;;;;;13.80;6.80;;;;;;;9.42;100.00;101519.69;4989460;28;20200;-71
2023/10/01 06:41:48;;;;;;;15.07;7.57;;;;;;;9.50;100.00;101519.94;4977552;28;20221;-70
2023/10/01 06:44:15;;;;;;;15.57;7.50;;;;;;;9.61;100.00;101521.25;4995665;28;20706;-70
2023/10/01 06:46:41;;;;;;;16.33;7.27;;;;;;;9.61;100.00;101521.25;4983071;28;20212;-70
2023/10/01 06:49:10;;;;;;;14.93;7.30;;;;;;;9.59;100.00;101514.97;4990254;28;20287;-70
2023/10/01 06:51:43;;;;;;;14.77;7.23;;;;;;;9.62;100.00;101520.41;4988668;28;20210;-72
2023/10/01 06:54:11;;;;;;;15.23;7.67;;;;;;;9.72;100.00;101519.88;4990958;28;20684;-70
2023/10/01 06:56:44;;;;;;;14.17;7.43;;;;;;;9.83;100.00;101520.25;4992895;28;20312;-71
2023/10/01 07:01:42;;;;;;;18.10;7.70;;;;;;;9.95;100.00;101524.19;4996841;28;20371;-70
2023/10/01 07:04:09;;;;;;;14.97;7.83;;;;;;;10.09;100.00;101521.13;4972833;28;20205;-70
2023/10/01 07:06:37;;;;;;;15.03;7.60;;;;;;;10.12;100.00;101530.06;4990080;28;20236;-70
2023/10/01 07:09:06;;;;;;;19.27;8.23;;;;;;;10.15;100.00;101529.28;4988283;28;20208;-70
2023/10/01 07:11:37;;;;;;;16.60;7.97;;;;;;;10.27;100.00;101529.72;4996896;28;20639;-70
2023/10/01 07:14:04;;;;;;;17.30;7.67;;;;;;;10.36;100.00;101530.00;4998958;28;20216;-70
2023/10/01 07:16:39;;;;;;;19.30;8.00;;;;;;;10.44;100.00;101530.28;4991435;28;20216;-70
2023/10/01 07:19:11;;;;;;;16.43;7.83;;;;;;;10.59;100.00;101525.44;4989675;28;20211;-70
2023/10/01 07:21:41;;;;;;;15.60;8.00;;;;;;;10.74;100.00;101525.03;4994579;28;20206;-70
2023/10/01 07:24:10;;;;;;;15.93;7.97;;;;;;;10.86;100.00;101531.63;4993440;28;20572;-70
2023/10/01 07:26:40;;;;;;;17.17;8.27;;;;;;;10.94;100.00;101524.78;4991824;28;20316;-70
2023/10/01 07:29:07;;;;;;;16.63;8.13;;;;;;;11.01;100.00;101523.22;5000130;28;20695;-70
2023/10/01 07:31:36;;;;;;;16.57;8.03;;;;;;;11.09;100.00;101516.38;4981457;28;20286;-70
2023/10/01 07:34:12;;;;;;;13.63;7.27;;;;;;;11.20;100.00;101524.63;4998565;28;20206;-70
2023/10/01 07:36:42;;;;;;;17.03;7.23;;;;;;;11.28;100.00;101525.78;4994396;28;20789;-70
2023/10/01 07:39:09;;;;;;;17.23;7.43;;;;;;;11.38;100.00;101526.94;5001774;28;20241;-70
2023/10/01 07:41:39;;;;;;;11.17;6.17;;;;;;;11.50;100.00;101525.53;5001158;28;20285;-78
2023/10/01 07:44:09;;;;;;;13.93;7.60;;;;;;;11.61;100.00;101526.75;4996797;28;20209;-78
2023/10/01 07:46:36;;;;;;;15.07;7.10;;;;;;;11.66;100.00;101521.56;4996150;28;20312;-74
2023/10/01 07:49:03;;;;;;;11.50;6.50;;;;;;;11.76;100.00;101526.25;4995668;28;20215;-75
2023/10/01 07:51:38;;;;;;;13.83;6.53;;;;;;;11.87;100.00;101523.91;4985023;28;20278;-73
2023/10/01 07:54:11;;;;;;;14.07;7.00;;;;;;;11.95;100.00;101519.69;4992208;28;20213;-75
2023/10/01 07:56:51;;;;;;;11.53;6.50;;;;;;;12.05;100.00;101527.03;5000343;28;20725;-75
2023/10/01 07:59:28;;;;;;;9.80;5.23;;;;;;;12.20;100.00;101529.19;4998991;28;20213;-73
2023/10/01 08:07:15;;;;;;;11.90;6.37;;;;;;;12.56;100.00;101521.22;5003502;28;20200;-80
2023/10/01 08:09:52;;;;;;;12.60;5.33;;;;;;;12.75;100.00;101520.75;5006145;28;20212;-80
2023/10/01 08:12:28;;;;;;;11.67;5.07;;;;;;;12.94;100.00;101518.53;4996406;28;20229;-78
2023/10/01 08:17:43;;;;;;;10.47;5.10;;;;;;;13.11;100.00;101517.09;4998113;28;20208;-78
2023/10/01 08:22:43;;;;;;;10.07;5.13;;;;;;;13.09;100.00;101519.72;5004193;28;20229;-79
2023/10/01 08:25:12;;;;;;;10.07;5.13;;;;;;;13.10;100.00;101516.22;5000299;28;20227;-79
2023/10/01 08:28:26;;;;;;;10.27;5.27;;;;;;;13.07;100.00;101512.59;4980867;28;20215;-79
2023/10/01 08:30:38;;;;;;;10.07;5.13;;;;;;;13.23;100.00;101516.53;4994804;28;20227;-79
2023/10/01 08:33:19;;;;;;;11.17;5.83;;;;;;;13.32;100.00;101517.59;5004297;28;20204;-79
2023/10/01 08:36:05;;;;;;;9.80;6.10;;;;;;;13.45;100.00;101522.28;5006464;28;20252;-76
2023/10/01 08:38:36;;;;;;;10.33;5.47;;;;;;;13.61;100.00;101522.56;4995591;28;20205;-74
2023/10/01 08:41:05;;;;;;;11.17;5.03;;;;;;;13.80;100.00;101514.97;4997650;28;20212;-73
2023/10/01 08:43:36;;;;;;;11.73;5.67;;;;;;;13.98;100.00;101524.16;4995001;28;20350;-74
2023/10/01 08:46:15;;;;;;;11.50;5.83;;;;;;;14.06;100.00;101503.91;4994120;28;20712;-73
2023/10/01 08:48:43;;;;;;;10.53;5.13;;;;;;;14.29;100.00;101520.25;5001295;28;20259;-72
2023/10/01 08:51:12;;;;;;;9.33;4.60;;;;;;;14.40;100.00;101514.22;5000895;28;20513;-72
2023/10/01 08:53:42;;;;;;;13.43;7.73;;;;;;;14.47;100.00;101511.72;4997823;28;20267;-73
2023/10/01 08:56:15;;;;;;;12.33;6.33;;;;;;;14.69;100.00;101513.81;4997071;28;20288;-71
2023/10/01 08:58:50;;;;;;;12.13;5.60;;;;;;;14.78;100.00;101511.25;4984399;28;20205;-72
2023/10/01 09:01:20;;;;;;;12.53;5.47;;;;;;;14.83;100.00;101512.25;5001744;28;20220;-73
2023/10/01 09:03:55;;;;;;;10.53;6.50;;;;;;;15.04;100.00;101514.28;4997168;28;20214;-73
2023/10/01 09:06:25;;;;;;;10.67;5.63;;;;;;;15.19;100.00;101509.16;4994643;28;20286;-72
2023/10/01 09:08:59;;;;;;;15.63;6.10;;;;;;;15.29;100.00;101504.84;4996133;28;20208;-72
2023/10/01 09:11:36;;;;;;;10.47;5.43;;;;;;;15.41;100.00;101504.97;4995938;28;20661;-73
2023/10/01 09:14:17;;;;;;;9.00;4.97;;;;;;;15.60;100.00;101519.44;4996568;28;20220;-73
2023/10/01 09:16:45;;;;;;;10.80;5.40;;;;;;;15.87;100.00;101510.84;4990456;28;20205;-71
2023/10/01 09:19:32;;;;;;;11.27;5.27;;;;;;;16.10;100.00;101505.72;4993991;28;20221;-72
2023/10/01 09:22:08;;;;;;;10.67;5.10;;;;;;;16.36;100.00;101505.91;4988371;28;20259;-72
2023/10/01 09:24:39;;;;;;;11.23;5.60;;;;;;;16.55;100.00;101499.81;4991007;28;20267;-72
2023/10/01 09:27:18;;;;;;;10.40;5.43;;;;;;;16.75;100.00;101498.19;4991279;28;20200;-72
2023/10/01 09:29:48;;;;;;;8.97;4.87;;;;;;;16.85;100.00;101497.38;4995676;28;20199;-72
2023/10/01 09:32:18;;;;;;;11.13;5.60;;;;;;;16.92;100.00;101506.34;4990732;28;20197;-72
2023/10/01 09:34:57;;;;;;;11.33;6.13;;;;;;;17.09;100.00;101503.72;4989259;28;20802;-72
2023/10/01 09:37:42;;;;;;;11.43;6.10;;;;;;;17.13;100.00;101505.53;4996551;28;20668;-72
2023/10/01 09:40:32;;;;;;;12.17;5.83;;;;;;;17.23;100.00;101497.56;4990249;28;20617;-72
2023/10/01 09:43:03;;;;;;;13.13;5.67;;;;;;;17.36;100.00;101503.84;4993663;28;20225;-72
2023/10/01 09:45:37;;;;;;;10.30;5.87;;;;;;;17.47;100.00;101509.22;4991364;28;20586;-73
2023/10/01 09:48:09;;;;;;;12.53;5.37;;;;;;;17.63;100.00;101512.88;4990908;28;20228;-72
2023/10/01 09:50:44;;;;;;;13.73;6.30;;;;;;;17.76;100.00;101504.00;4998304;28;20710;-72
2023/10/01 09:53:18;;;;;;;12.60;5.87;;;;;;;17.93;100.00;101512.94;4998128;28;20710;-72
2023/10/01 09:55:49;;;;;;;12.27;6.00;;;;;;;17.91;100.00;101509.34;4980291;28;20295;-73
2023/10/01 09:58:27;;;;;;;12.70;6.93;;;;;;;17.88;100.00;101501.31;4973716;28;20313;-72
2023/10/01 10:01:00;;;;;;;11.67;6.43;;;;;;;17.91;100.00;101500.44;4991590;28;20294;-73
2023/10/01 10:03:36;;;;;;;15.43;6.80;;;;;;;17.94;100.00;101501.31;4992181;28;20760;-72
2023/10/01 10:06:08;;;;;;;11.63;6.73;;;;;;;17.97;100.00;101503.09;4996046;28;20768;-73
2023/10/01 10:08:36;;;;;;;11.40;5.73;;;;;;;18.09;100.00;101497.78;4999457;28;20205;-73
2023/10/01 10:11:06;;;;;;;13.20;5.97;;;;;;;18.28;100.00;101487.94;4992970;28;20209;-73
2023/10/01 10:13:37;;;;;;;15.23;6.90;;;;;;;18.57;100.00;101488.81;4994353;28;20204;-73
2023/10/01 10:16:30;;;;;;;16.50;7.10;;;;;;;18.81;97.66;101479.81;4994887;28;20241;-73
2023/10/01 10:19:11;;;;;;;13.23;7.13;;;;;;;18.97;93.47;101481.56;4992373;28;20207;-72
2023/10/01 10:24:29;;;;;;;14.38;6.45;;;;;;;19.38;95.89;101484.06;4992099;28;20224;-73
2023/10/01 10:26:58;;;;;;;14.02;6.28;;;;;;;19.48;88.10;101478.63;4995379;28;20201;-73
2023/10/01 10:29:46;;;;;;;14.48;6.18;;;;;;;19.48;88.14;101474.16;4983107;28;20201;-73
2023/10/01 10:32:13;;;;;;;12.65;6.40;;;;;;;19.61;89.80;101467.88;4994232;28;20227;-72
2023/10/01 10:35:07;;;;;;;12.82;6.50;;;;;;;19.67;88.10;101477.69;4999830;28;20275;-72
2023/10/01 10:37:36;;;;;;;11.77;6.00;;;;;;;19.72;85.26;101473.16;4947122;28;20200;-72
2023/10/01 10:42:40;;;;;;;14.63;5.95;;;;;;;19.94;87.00;101461.31;4996789;28;20205;-72
2023/10/01 10:45:20;;;;;;;9.15;5.40;;;;;;;20.15;87.33;101464.75;4998688;28;20256;-73
2023/10/01 10:48:01;;;;;;;11.75;5.97;;;;;;;20.33;83.22;101461.88;5000716;28;20235;-73
2023/10/01 10:50:48;;;;;;;12.82;6.32;;;;;;;20.40;82.87;101468.13;4984235;28;20679;-73
2023/10/01 10:53:21;;;;;;;14.40;6.40;;;;;;;20.48;80.95;101466.28;4992144;28;20247;-72
2023/10/01 10:56:02;;;;;;;12.38;5.90;;;;;;;20.51;79.91;101468.94;4989301;28;20216;-73
2023/10/01 10:58:43;;;;;;;13.63;5.95;;;;;;;20.49;78.52;101460.88;4991979;28;20200;-73
2023/10/01 11:01:18;;;;;;;12.45;6.07;;;;;;;20.48;78.92;101455.53;5007283;28;20212;-73
2023/10/01 11:03:50;;;;;;;15.40;6.07;;;;;;;20.56;80.69;101445.56;4995925;28;20220;-73
2023/10/01 11:06:29;;;;;;;10.18;4.85;;;;;;;20.76;79.10;101448.91;4996345;28;20724;-73
2023/10/01 11:08:57;;;;;;;11.80;5.72;;;;;;;20.81;76.61;101444.38;4996518;28;20236;-73
2023/10/01 11:11:39;;;;;;;9.00;4.97;;;;;;;20.73;75.85;101457.03;4997687;28;20212;-73
2023/10/01 11:14:15;;;;;;;9.18;4.80;;;;;;;20.80;76.24;101449.75;4998002;28;20208;-73
2023/10/01 11:16:48;;;;;;;10.88;4.80;;;;;;;20.96;76.67;101456.75;4995483;28;20618;-73
2023/10/01 11:19:16;;;;;;;10.60;4.90;;;;;;;21.16;74.70;101438.53;4992223;28;20216;-72
2023/10/01 11:22:00;;;;;;;11.95;5.53;;;;;;;21.25;72.17;101432.19;4996241;28;20212;-73
2023/10/01 11:24:29;;;;;;;12.20;5.40;;;;;;;21.46;70.64;101430.97;4974529;28;20224;-73
2023/10/01 11:27:14;;;;;;;10.27;4.75;;;;;;;21.63;70.53;101428.03;4998633;28;20201;-73
2023/10/01 11:29:42;;;;;;;10.35;5.03;;;;;;;21.53;70.27;101422.75;4987906;28;20209;-72
2023/10/01 11:32:16;;;;;;;9.90;5.10;;;;;;;21.78;71.89;101422.38;4993070;28;20205;-72
2023/10/01 11:34:55;;;;;;;8.57;4.20;;;;;;;21.86;68.38;101421.34;4992379;28;20215;-73
2023/10/01 11:37:27;;;;;;;9.88;4.85;;;;;;;21.98;68.19;101422.94;4994583;28;20213;-73
2023/10/01 11:39:54;;;;;;;8.70;4.70;;;;;;;22.09;68.80;101423.69;4981575;28;20634;-73
2023/10/01 11:42:35;;;;;;;10.13;5.15;;;;;;;22.13;67.39;101427.22;4999103;28;20215;-73
2023/10/01 11:45:30;;;;;;;10.80;5.13;;;;;;;22.31;68.01;101431.41;4991328;28;20221;-73
2023/10/01 11:48:07;;;;;;;9.93;4.78;;;;;;;22.49;66.87;101423.84;4991911;28;20212;-73
2023/10/01 11:50:51;;;;;;;11.02;5.18;;;;;;;22.51;63.99;101411.22;4997311;28;20206;-73
2023/10/01 11:53:28;;;;;;;11.35;5.30;;;;;;;22.37;64.33;101410.56;4995799;28;20200;-73
2023/10/01 11:56:01;;;;;;;9.73;4.70;;;;;;;22.54;64.23;101402.16;4994056;28;20236;-73
2023/10/01 11:58:28;;;;;;;11.85;5.10;;;;;;;22.68;63.28;101401.88;4994519;28;20208;-73
2023/10/01 12:01:04;;;;;;;11.32;5.10;;;;;;;22.78;64.11;101398.06;4989426;28;20247;-73
2023/10/01 12:03:32;;;;;;;11.23;5.38;;;;;;;22.88;64.06;101397.00;4996296;28;20251;-73
2023/10/01 12:05:59;;;;;;;9.13;4.50;;;;;;;23.00;63.20;101398.53;4991337;28;20232;-72
2023/10/01 12:08:47;;;;;;;11.38;5.05;;;;;;;23.10;61.97;101392.91;4994982;28;20288;-71
2023/10/01 12:11:26;;;;;;;12.38;4.90;;;;;;;23.09;60.46;101380.31;4990909;28;20197;-71
2023/10/01 12:14:06;;;;;;;13.68;5.05;;;;;;;23.00;61.54;101374.22;4992505;28;20303;-72